Terminal Aerodrome Forecast
Issued by NWS

Home | Current Version | Previous Version | Text Only | Print | Product List | Glossary On
Versions: 1 2 3 4 5 6 7 8 9 10 11 12 13 14 15
000
FTUS45 KREV 272000 AAA
TAFMMH
TAF AMD
KMMH 272040Z 2721/2818 13007KT P6SM VCSH BKN020 OVC035
      TEMPO 2721/2723 6SM -SHRA OVC020
     FM280200 VRB03KT P6SM BKN030 OVC060=

USA.gov is the U.S. government's official web portal to all federal, state and local government web resources and services.